createdAt,value
2018-04-13T00:02:10.279Z,98239.98
2018-04-13T00:04:44.587Z,98241.67
2018-04-13T00:07:17.930Z,98238.83
2018-04-13T00:09:51.775Z,98245.00
2018-04-13T00:12:30.716Z,98240.84
2018-04-13T00:15:04.301Z,98233.03
2018-04-13T00:17:37.892Z,98231.72
2018-04-13T00:20:11.526Z,98227.36
2018-04-13T00:22:45.080Z,98235.25
2018-04-13T00:25:18.576Z,98226.66
2018-04-13T00:27:51.942Z,98232.30
2018-04-13T00:30:25.780Z,98233.56
2018-04-13T00:32:59.167Z,98240.72
2018-04-13T00:35:34.426Z,98239.00
2018-04-13T00:38:07.793Z,98240.96
2018-04-13T00:40:41.026Z,98239.41
2018-04-13T00:43:14.424Z,98244.10
2018-04-13T00:45:47.651Z,98244.62
2018-04-13T00:48:21.064Z,98245.63
2018-04-13T00:50:54.589Z,98243.91
2018-04-13T00:53:30.778Z,98241.67
2018-04-13T00:56:04.379Z,98242.01
2018-04-13T00:58:37.887Z,98244.64
2018-04-13T01:01:11.269Z,98246.47
2018-04-13T01:03:44.501Z,98251.62
2018-04-13T01:06:19.160Z,98252.02
2018-04-13T01:08:55.101Z,98243.48
2018-04-13T01:11:28.813Z,98237.30
2018-04-13T01:14:02.565Z,98232.36
2018-04-13T01:16:36.463Z,98236.43
2018-04-13T01:19:09.861Z,98229.08
2018-04-13T01:21:43.514Z,98228.66
2018-04-13T01:24:16.704Z,98226.94
2018-04-13T01:26:50.450Z,98223.36
2018-04-13T01:29:23.980Z,98219.30
2018-04-13T01:31:57.428Z,98224.56
2018-04-13T01:34:30.764Z,98224.48
2018-04-13T01:37:04.766Z,98227.20
2018-04-13T01:39:38.447Z,98227.45
2018-04-13T01:42:11.751Z,98231.12
2018-04-13T01:44:45.427Z,98222.23
2018-04-13T01:47:18.705Z,98235.58
2018-04-13T01:49:52.469Z,98231.20
2018-04-13T01:52:26.261Z,98220.30
2018-04-13T01:54:59.729Z,98222.75
2018-04-13T01:57:33.468Z,98215.18
2018-04-13T02:00:08.505Z,98220.92
2018-04-13T02:02:42.825Z,98216.48
2018-04-13T02:05:16.369Z,98219.05
2018-04-13T02:07:50.314Z,98218.88
2018-04-13T02:10:24.523Z,98223.05
2018-04-13T02:12:58.753Z,98229.89
2018-04-13T02:15:32.706Z,98217.37
2018-04-13T02:18:06.380Z,98226.77
2018-04-13T02:20:40.714Z,98226.76
2018-04-13T02:23:14.825Z,98229.23
2018-04-13T02:25:49.889Z,98231.04
2018-04-13T02:28:23.537Z,98228.20
2018-04-13T02:31:00.169Z,98230.58
2018-04-13T02:33:34.187Z,98230.56
2018-04-13T02:36:10.428Z,98227.02
2018-04-13T02:38:45.705Z,98227.94
2018-04-13T02:41:20.258Z,98235.27
2018-04-13T02:43:56.181Z,98247.78
2018-04-13T02:46:30.742Z,98251.79
2018-04-13T02:49:05.663Z,98255.61
2018-04-13T02:51:39.995Z,98250.73
2018-04-13T02:54:14.192Z,98259.32
2018-04-13T02:56:49.106Z,98260.70
2018-04-13T02:59:23.138Z,98264.11
2018-04-13T03:01:57.038Z,98280.10
2018-04-13T03:04:30.728Z,98278.32
2018-04-13T03:07:04.002Z,98280.44
2018-04-13T03:09:37.413Z,98278.92
2018-04-13T03:12:10.720Z,98292.41
2018-04-13T03:14:44.528Z,98304.09
2018-04-13T03:17:18.038Z,98314.20
2018-04-13T03:19:51.304Z,98302.59
2018-04-13T03:22:25.113Z,98307.05
2018-04-13T03:24:58.677Z,98311.83
2018-04-13T03:27:31.918Z,98312.54
2018-04-13T03:30:05.652Z,98301.75
2018-04-13T03:32:39.156Z,98303.80
2018-04-13T03:35:12.384Z,98297.55
2018-04-13T03:37:46.568Z,98291.27
2018-04-13T03:40:20.098Z,98290.66
2018-04-13T03:42:53.414Z,98295.53
2018-04-13T03:45:27.238Z,98291.61
2018-04-13T03:48:00.781Z,98289.05
2018-04-13T03:50:34.111Z,98295.60
2018-04-13T03:53:07.781Z,98293.26
2018-04-13T03:55:41.435Z,98291.34
2018-04-13T03:58:14.754Z,98293.70
2018-04-13T04:00:48.755Z,98295.80
2018-04-13T04:03:22.613Z,98311.00
2018-04-13T04:05:55.986Z,98318.92
2018-04-13T04:08:29.405Z,98317.59
2018-04-13T04:11:02.925Z,98317.17
2018-04-13T04:13:36.290Z,98310.86
2018-04-13T04:16:09.499Z,98316.14
2018-04-13T04:18:43.310Z,98314.77
2018-04-13T04:23:28.778Z,98315.93
2018-04-13T04:27:09.466Z,98310.75
2018-04-13T04:29:44.245Z,98307.09
2018-04-13T04:32:17.757Z,98309.23
2018-04-13T04:34:51.104Z,98309.52
2018-04-13T04:37:25.015Z,98303.08
2018-04-13T04:39:58.759Z,98308.70
2018-04-13T04:42:32.076Z,98319.84
2018-04-13T04:45:05.778Z,98320.32
2018-04-13T04:47:39.709Z,98318.06
2018-04-13T04:50:13.081Z,98328.50
2018-04-13T04:52:46.948Z,98332.81
2018-04-13T04:55:20.565Z,98329.68
2018-04-13T04:57:54.108Z,98341.42
2018-04-13T05:00:28.039Z,98342.15
2018-04-13T05:03:02.077Z,98343.19
2018-04-13T05:05:39.452Z,98343.64
2018-04-13T05:08:14.581Z,98341.48
2018-04-13T05:10:52.469Z,98345.13
2018-04-13T05:13:27.488Z,98356.17
2018-04-13T05:16:02.563Z,98355.05
2018-04-13T05:18:36.612Z,98351.38
2018-04-13T05:21:10.520Z,98351.62
2018-04-13T05:23:43.851Z,98347.52
2018-04-13T05:26:17.137Z,98346.70
2018-04-13T05:28:50.800Z,98337.08
2018-04-13T05:31:25.651Z,98342.35
2018-04-13T05:34:01.743Z,98346.43
2018-04-13T05:36:38.019Z,98358.31
2018-04-13T05:39:12.721Z,98359.05
2018-04-13T05:41:47.758Z,98349.95
2018-04-13T05:44:21.482Z,98355.23
2018-04-13T05:47:07.231Z,98360.33
2018-04-13T05:49:40.791Z,98351.86
2018-04-13T05:52:15.669Z,98359.25
2018-04-13T05:54:48.978Z,98360.14
2018-04-13T05:57:22.552Z,98352.27
2018-04-13T05:59:56.827Z,98353.27
2018-04-13T06:02:30.146Z,98353.07
2018-04-13T06:05:03.449Z,98359.98
2018-04-13T06:07:37.391Z,98355.77
2018-04-13T06:10:10.761Z,98351.85
2018-04-13T06:12:44.088Z,98356.21
2018-04-13T06:15:17.920Z,98356.37
2018-04-13T06:17:51.409Z,98367.23
2018-04-13T06:20:24.869Z,98374.53
2018-04-13T06:23:04.417Z,98370.64
2018-04-13T06:25:41.408Z,98369.37
2018-04-13T06:28:15.449Z,98367.23
2018-04-13T06:30:49.042Z,98362.70
2018-04-13T06:33:23.171Z,98360.64
2018-04-13T06:35:59.192Z,98367.25
2018-04-13T06:38:32.652Z,98358.97
2018-04-13T06:41:06.286Z,98359.39
2018-04-13T06:43:40.647Z,98351.89
2018-04-13T06:46:14.230Z,98360.20
2018-04-13T06:48:48.006Z,98363.55
2018-04-13T06:51:24.284Z,98371.83
2018-04-13T06:53:59.091Z,98363.56
2018-04-13T06:56:33.041Z,98360.23
2018-04-13T06:59:10.093Z,98355.20
2018-04-13T07:01:48.430Z,98362.05
2018-04-13T07:04:23.547Z,98364.73
2018-04-13T07:06:58.222Z,98373.78
2018-04-13T07:09:31.885Z,98373.52
2018-04-13T07:12:06.153Z,98368.05
2018-04-13T07:14:39.640Z,98362.44
2018-04-13T07:17:13.463Z,98360.96
2018-04-13T07:19:48.025Z,98360.11
2018-04-13T07:22:21.861Z,98376.16
2018-04-13T07:24:55.627Z,98371.61
2018-04-13T07:27:30.281Z,98375.16
2018-04-13T07:30:04.339Z,98372.98
2018-04-13T07:32:37.969Z,98379.72
2018-04-13T07:35:11.949Z,98379.26
2018-04-13T07:37:49.850Z,98387.47
2018-04-13T07:40:23.707Z,98380.31
2018-04-13T07:42:57.859Z,98380.56
2018-04-13T07:45:31.323Z,98373.61
2018-04-13T07:48:04.916Z,98378.82
2018-04-13T07:50:38.189Z,98382.12
2018-04-13T07:53:12.030Z,98380.37
2018-04-13T07:55:46.061Z,98388.30
2018-04-13T07:58:19.714Z,98386.36
2018-04-13T08:00:53.797Z,98375.56
2018-04-13T08:03:27.213Z,98382.17
2018-04-13T08:06:01.058Z,98390.02
2018-04-13T08:08:34.880Z,98393.30
2018-04-13T08:11:09.000Z,98388.61
2018-04-13T08:13:42.668Z,98394.77
2018-04-13T08:16:16.543Z,98394.70
2018-04-13T08:18:50.409Z,98400.84
2018-04-13T08:21:24.169Z,98407.12
2018-04-13T08:23:58.751Z,98413.78
2018-04-13T08:26:32.626Z,98416.80
2018-04-13T08:29:06.147Z,98414.30
2018-04-13T08:31:41.023Z,98415.42
2018-04-13T08:34:15.630Z,98418.69
2018-04-13T08:36:49.129Z,98416.15
2018-04-13T08:39:23.050Z,98417.89
2018-04-13T08:41:57.162Z,98420.57
2018-04-13T08:44:30.679Z,98406.88
2018-04-13T08:47:06.470Z,98411.23
2018-04-13T08:49:40.885Z,98402.58
2018-04-13T08:52:15.764Z,98408.55
2018-04-13T08:54:49.914Z,98414.39
2018-04-13T08:57:23.651Z,98420.00
2018-04-13T08:59:58.969Z,98418.38
2018-04-13T09:02:32.641Z,98418.14
2018-04-13T09:05:06.130Z,98415.98
2018-04-13T09:07:40.328Z,98405.50
2018-04-13T09:10:14.268Z,98417.28
2018-04-13T09:12:48.398Z,98414.44
2018-04-13T09:15:22.364Z,98419.68
2018-04-13T09:17:56.976Z,98417.36
2018-04-13T09:20:30.797Z,98434.98
2018-04-13T09:23:04.312Z,98437.65
2018-04-13T09:25:37.998Z,98448.14
2018-04-13T09:28:12.226Z,98445.67
2018-04-13T09:30:47.453Z,98445.93
2018-04-13T09:33:21.766Z,98439.23
2018-04-13T09:35:56.187Z,98435.65
2018-04-13T09:38:32.037Z,98444.31
2018-04-13T09:47:57.893Z,98458.20
2018-04-13T09:50:33.857Z,98459.27
2018-04-13T09:53:07.781Z,98451.48
2018-04-13T09:55:41.649Z,98454.97
2018-04-13T09:58:15.686Z,98459.83
2018-04-13T10:00:55.657Z,98443.04
2018-04-13T10:03:38.748Z,98456.45
2018-04-13T10:06:26.649Z,98454.63
2018-04-13T10:09:03.342Z,98459.59
2018-04-13T10:11:37.650Z,98453.03
2018-04-13T10:14:11.051Z,98447.45
2018-04-13T10:16:45.216Z,98448.63
2018-04-13T10:19:19.206Z,98445.65
2018-04-13T10:21:52.460Z,98451.41
2018-04-13T10:24:28.588Z,98447.11
2018-04-13T10:27:01.783Z,98435.71
2018-04-13T10:29:36.709Z,98435.73
2018-04-13T10:32:13.312Z,98432.13
2018-04-13T10:34:50.860Z,98436.95
2018-04-13T10:37:24.268Z,98442.38
2018-04-13T10:39:58.102Z,98439.59
2018-04-13T10:42:32.530Z,98455.05
2018-04-13T10:45:07.235Z,98456.64
2018-04-13T10:47:40.558Z,98456.84
2018-04-13T10:50:14.305Z,98456.14
2018-04-13T10:52:49.272Z,98456.91
2018-04-13T10:55:22.830Z,98456.70
2018-04-13T10:57:57.101Z,98451.59
2018-04-13T11:00:32.109Z,98454.70
2018-04-13T11:03:06.527Z,98461.17
2018-04-13T11:05:40.443Z,98463.14
2018-04-13T11:08:14.574Z,98464.54
2018-04-13T11:10:48.912Z,98463.13
2018-04-13T11:13:24.765Z,98463.70
2018-04-13T11:15:58.291Z,98454.41
2018-04-13T11:18:32.510Z,98455.26
2018-04-13T11:21:06.758Z,98462.88
2018-04-13T11:23:40.592Z,98462.02
2018-04-13T11:26:14.855Z,98459.48
2018-04-13T11:28:48.972Z,98454.49
2018-04-13T11:31:24.229Z,98454.40
2018-04-13T11:33:58.640Z,98463.62
2018-04-13T11:36:45.772Z,98461.48
2018-04-13T11:39:26.705Z,98460.80
2018-04-13T11:42:00.892Z,98457.50
2018-04-13T11:44:36.161Z,98461.15
2018-04-13T11:47:10.969Z,98464.09
2018-04-13T11:49:44.845Z,98463.48
2018-04-13T11:52:19.898Z,98472.88
2018-04-13T11:54:53.677Z,98466.31
2018-04-13T11:57:29.574Z,98477.83
2018-04-13T12:00:03.779Z,98480.33
2018-04-13T12:02:38.275Z,98479.23
2018-04-13T12:05:11.965Z,98478.58
2018-04-13T12:07:45.454Z,98493.91
2018-04-13T12:13:02.142Z,98506.59
2018-04-13T12:15:35.591Z,98505.76
2018-04-13T12:18:09.294Z,98504.91
2018-04-13T12:20:43.248Z,98506.70
2018-04-13T12:23:16.661Z,98517.33
2018-04-13T12:25:50.243Z,98527.34
2018-04-13T12:28:24.172Z,98529.94
2018-04-13T12:31:02.098Z,98542.55
2018-04-13T12:33:36.968Z,98542.02
2018-04-13T12:36:10.767Z,98532.28
2018-04-13T12:38:50.917Z,98544.84
2018-04-13T12:41:28.251Z,98537.66
2018-04-13T12:46:46.113Z,98546.94
2018-04-13T12:55:19.158Z,98531.79
2018-04-13T12:58:08.145Z,98538.53
2018-04-13T13:00:48.409Z,98528.94
2018-04-13T13:06:22.243Z,98536.76
2018-04-13T13:08:56.105Z,98535.03
2018-04-13T13:11:38.287Z,98530.86
2018-04-13T13:14:12.733Z,98549.11
2018-04-13T13:17:11.235Z,98546.86
2018-04-13T13:27:08.602Z,98550.69
2018-04-13T13:30:54.595Z,98549.36
2018-04-13T13:33:34.584Z,98541.69
2018-04-13T13:36:15.710Z,98550.41
2018-04-13T13:38:52.271Z,98549.30
2018-04-13T13:41:28.264Z,98554.63
2018-04-13T13:44:04.865Z,98547.11
2018-04-13T13:46:43.288Z,98554.58
2018-04-13T13:49:20.412Z,98557.84
2018-04-13T13:52:15.812Z,98551.66
2018-04-13T13:55:03.498Z,98567.81
2018-04-13T13:57:38.530Z,98561.97
2018-04-13T14:00:15.650Z,98567.60
2018-04-13T14:03:00.052Z,98584.59
2018-04-13T14:05:34.786Z,98576.38
2018-04-13T14:08:16.201Z,98575.52
2018-04-13T14:10:59.247Z,98583.97
2018-04-13T14:13:46.159Z,98559.57
2018-04-13T14:16:23.717Z,98621.48
2018-04-13T14:18:59.805Z,98614.13
2018-04-13T14:21:35.070Z,98615.25
2018-04-13T14:24:09.900Z,98623.73
2018-04-13T14:26:43.477Z,98615.70
2018-04-13T14:29:17.247Z,98618.86
2018-04-13T14:31:51.080Z,98627.45
2018-04-13T14:34:24.604Z,98630.97
2018-04-13T14:36:58.383Z,98627.13
2018-04-13T14:39:31.743Z,98629.78
2018-04-13T14:42:07.858Z,98633.08
2018-04-13T14:44:43.527Z,98633.19
2018-04-13T14:47:17.489Z,98644.05
2018-04-13T14:49:51.609Z,98638.45
2018-04-13T14:52:25.317Z,98632.50
2018-04-13T14:55:01.104Z,98631.09
2018-04-13T14:57:35.266Z,98634.27
2018-04-13T15:00:09.194Z,98625.97
2018-04-13T15:02:43.061Z,98623.92
2018-04-13T15:05:17.252Z,98617.67
2018-04-13T15:07:50.571Z,98622.51
2018-04-13T15:10:24.600Z,98625.84
2018-04-13T15:12:58.963Z,98625.08
2018-04-13T15:15:32.381Z,98628.66
2018-04-13T15:18:06.008Z,98631.26
2018-04-13T15:20:41.001Z,98641.41
2018-04-13T15:23:14.590Z,98636.32
2018-04-13T15:25:48.459Z,98632.06
2018-04-13T15:28:23.593Z,98645.81
2018-04-13T15:30:57.027Z,98648.04
2018-04-13T15:33:33.334Z,98653.64
2018-04-13T15:36:07.209Z,98659.58
2018-04-13T15:38:41.860Z,98665.36
2018-04-13T15:41:16.756Z,98673.31
2018-04-13T15:43:50.663Z,98672.94
2018-04-13T15:46:25.214Z,98694.13
2018-04-13T15:48:59.654Z,98699.92
2018-04-13T15:51:33.026Z,98693.72
2018-04-13T15:54:06.861Z,98703.19
2018-04-13T15:56:40.699Z,98696.34
2018-04-13T15:59:14.298Z,98701.12
2018-04-13T16:01:48.005Z,98700.56
2018-04-13T16:04:21.547Z,98703.38
2018-04-13T16:06:55.023Z,98712.58
2018-04-13T16:09:29.351Z,98709.20
2018-04-13T16:12:02.758Z,98710.47
2018-04-13T16:14:36.188Z,98712.79
2018-04-13T16:17:12.675Z,98710.78
2018-04-13T16:19:48.160Z,98718.63
2018-04-13T16:22:23.316Z,98736.64
2018-04-13T16:24:57.929Z,98727.36
2018-04-13T16:27:32.938Z,98734.58
2018-04-13T16:30:07.608Z,98740.61
2018-04-13T16:32:41.752Z,98734.47
2018-04-13T16:35:15.505Z,98741.45
2018-04-13T16:37:51.788Z,98753.04
2018-04-13T16:40:27.043Z,98751.94
2018-04-13T16:43:02.817Z,98758.95
2018-04-13T16:45:37.155Z,98765.48
2018-04-13T16:48:11.959Z,98764.20
2018-04-13T16:50:45.548Z,98759.30
2018-04-13T16:53:19.069Z,98778.31
2018-04-13T16:55:55.475Z,98777.56
2018-04-13T16:58:29.335Z,98783.53
2018-04-13T17:01:03.616Z,98789.05
2018-04-13T17:06:06.754Z,98784.95
2018-04-13T17:08:45.834Z,98799.21
2018-04-13T17:11:20.233Z,98810.50
2018-04-13T17:13:54.306Z,98799.97
2018-04-13T17:16:28.403Z,98812.13
2018-04-13T17:19:02.296Z,98814.43
2018-04-13T17:21:39.476Z,98825.86
2018-04-13T17:24:13.453Z,98828.22
2018-04-13T17:26:47.856Z,98838.80
2018-04-13T17:29:22.875Z,98842.20
2018-04-13T17:31:59.028Z,98840.58
2018-04-13T17:34:32.461Z,98842.87
2018-04-13T17:37:06.112Z,98860.86
2018-04-13T17:39:42.341Z,98859.36
2018-04-13T17:42:16.120Z,98865.08
2018-04-13T17:44:50.116Z,98870.62
2018-04-13T17:47:26.268Z,98864.40
2018-04-13T17:50:03.589Z,98868.91
2018-04-13T17:52:37.290Z,98862.56
2018-04-13T17:55:10.942Z,98870.66
2018-04-13T17:57:44.763Z,98868.98
2018-04-13T18:00:21.844Z,98871.20
2018-04-13T18:03:10.430Z,98881.95
2018-04-13T18:06:06.209Z,98887.53
2018-04-13T18:08:43.800Z,98888.16
2018-04-13T18:11:20.121Z,98892.74
2018-04-13T18:13:54.093Z,98898.56
2018-04-13T18:16:29.399Z,98899.77
2018-04-13T18:19:03.177Z,98910.70
2018-04-13T18:21:37.119Z,98911.44
2018-04-13T18:24:11.917Z,98912.28
2018-04-13T18:26:46.452Z,98920.48
2018-04-13T18:29:20.279Z,98936.70
2018-04-13T18:31:54.053Z,98938.30
2018-04-13T18:34:28.678Z,98938.56
2018-04-13T18:37:02.564Z,98941.28
2018-04-13T18:39:36.946Z,98943.13
2018-04-13T18:42:10.767Z,98962.57
2018-04-13T18:44:46.946Z,98969.50
2018-04-13T18:47:21.032Z,98963.21
2018-04-13T18:49:54.468Z,98980.27
2018-04-13T18:52:29.031Z,98980.21
2018-04-13T18:55:02.432Z,98984.95
2018-04-13T18:57:37.641Z,98989.01
2018-04-13T19:00:12.296Z,98996.41
2018-04-13T19:02:46.328Z,98997.75
2018-04-13T19:05:20.080Z,98997.94
2018-04-13T19:07:53.565Z,99000.88
2018-04-13T19:10:29.024Z,99002.37
2018-04-13T19:13:02.785Z,99002.82
2018-04-13T19:15:36.552Z,99016.28
2018-04-13T19:18:10.195Z,99022.44
2018-04-13T19:20:44.576Z,99027.37
2018-04-13T19:23:18.835Z,99027.95
2018-04-13T19:25:55.225Z,99019.42
2018-04-13T19:28:29.750Z,99031.20
2018-04-13T19:31:17.138Z,99026.36
2018-04-13T19:33:55.167Z,99021.23
2018-04-13T19:36:29.421Z,99029.89
2018-04-13T19:39:03.955Z,99024.84
2018-04-13T19:41:37.558Z,99029.19
2018-04-13T19:44:11.456Z,99041.76
2018-04-13T19:46:44.768Z,99046.18
2018-04-13T19:49:18.605Z,99046.48
2018-04-13T19:51:52.568Z,99048.92
2018-04-13T19:54:25.964Z,99048.09
2018-04-13T19:56:59.876Z,99047.78
2018-04-13T19:59:34.974Z,99050.35
2018-04-13T20:02:08.315Z,99047.75
2018-04-13T20:04:41.577Z,99047.39
2018-04-13T20:07:16.108Z,99059.86
2018-04-13T20:09:49.363Z,99058.86
2018-04-13T20:12:22.633Z,99061.86
2018-04-13T20:14:56.867Z,99064.77
2018-04-13T20:17:30.673Z,99062.22
2018-04-13T20:20:04.072Z,99069.59
2018-04-13T20:22:40.886Z,99061.06
2018-04-13T20:25:14.889Z,99065.00
2018-04-13T20:27:50.218Z,99063.96
2018-04-13T20:30:25.720Z,99065.05
2018-04-13T20:33:01.535Z,99072.51
2018-04-13T20:35:41.745Z,99076.08
2018-04-13T20:38:15.478Z,99084.00
2018-04-13T20:40:48.745Z,99084.33
2018-04-13T20:43:22.689Z,99085.76
2018-04-13T20:45:57.349Z,99088.63
2018-04-13T20:48:31.570Z,99093.41
2018-04-13T20:51:05.249Z,99094.20
2018-04-13T20:53:39.008Z,99103.86
2018-04-13T20:56:13.829Z,99100.58
2018-04-13T20:58:47.226Z,99098.56
2018-04-13T21:01:20.833Z,99101.58
2018-04-13T21:03:54.888Z,99109.64
2018-04-13T21:06:28.533Z,99111.09
2018-04-13T21:09:02.082Z,99109.27
2018-04-13T21:11:36.208Z,99121.56
2018-04-13T21:14:09.500Z,99094.30
2018-04-13T21:16:42.992Z,99128.93
2018-04-13T21:19:16.935Z,99129.91
2018-04-13T21:21:50.607Z,99138.13
2018-04-13T21:24:25.974Z,99134.79
2018-04-13T21:27:01.969Z,99140.76
2018-04-13T21:29:35.995Z,99130.84
2018-04-13T21:32:09.889Z,99138.69
2018-04-13T21:34:43.205Z,99136.58
2018-04-13T21:37:16.553Z,99145.39
2018-04-13T21:39:50.238Z,99143.38
2018-04-13T21:42:24.724Z,99143.47
2018-04-13T21:44:57.992Z,99155.21
2018-04-13T21:47:31.662Z,99154.19
2018-04-13T21:50:05.318Z,99158.39
2018-04-13T21:52:38.947Z,99154.27
2018-04-13T21:55:12.611Z,99164.30
2018-04-13T21:57:45.882Z,99168.05
2018-04-13T22:00:19.271Z,99182.99
2018-04-13T22:02:53.186Z,99175.62
2018-04-13T22:07:59.493Z,99180.07
2018-04-13T22:10:33.893Z,99193.95
2018-04-13T22:13:29.891Z,99197.91
2018-04-13T22:16:10.225Z,99209.39
2018-04-13T22:18:43.561Z,99209.34
2018-04-13T22:21:17.639Z,99222.07
2018-04-13T22:23:51.217Z,99225.07
2018-04-13T22:26:24.413Z,99230.11
2018-04-13T22:28:57.992Z,99240.81
2018-04-13T22:31:39.208Z,99240.27
2018-04-13T22:34:13.185Z,99252.83
2018-04-13T22:36:46.737Z,99251.26
2018-04-13T22:39:20.225Z,99260.79
2018-04-13T22:41:53.956Z,99263.45
2018-04-13T22:44:27.372Z,99263.20
2018-04-13T22:47:00.935Z,99275.16
2018-04-13T22:49:34.317Z,99276.44
2018-04-13T22:52:07.681Z,99279.53
2018-04-13T22:54:44.208Z,99286.15
2018-04-13T22:57:23.333Z,99286.46
2018-04-13T23:00:09.057Z,99295.91
2018-04-13T23:02:44.969Z,99282.41
2018-04-13T23:05:20.137Z,99300.52
2018-04-13T23:07:56.589Z,99300.15
2018-04-13T23:10:38.313Z,99308.44
2018-04-13T23:13:13.351Z,99311.45
2018-04-13T23:15:46.827Z,99314.98
2018-04-13T23:18:20.550Z,99311.33
2018-04-13T23:20:54.142Z,99317.30
2018-04-13T23:23:27.585Z,99324.88
2018-04-13T23:26:01.592Z,99327.64
2018-04-13T23:28:34.849Z,99329.55
2018-04-13T23:31:08.212Z,99338.64
2018-04-13T23:33:41.955Z,99339.84
2018-04-13T23:36:15.210Z,99340.74
2018-04-13T23:38:48.568Z,99351.69
2018-04-13T23:41:22.502Z,99351.67
2018-04-13T23:43:55.767Z,99358.19
2018-04-13T23:46:29.294Z,99362.36
2018-04-13T23:49:03.104Z,99356.67
2018-04-13T23:51:36.953Z,99370.13
2018-04-13T23:54:10.162Z,99375.63
2018-04-13T23:56:43.965Z,99371.09
2018-04-13T23:59:17.556Z,99386.39
